Latest Coastal Weather Observations for Centre Island

IDD60701

Issued at 12:21 am CST Sunday 20 August 2017 (issued every 10 minutes, with the page automatically refreshed every 10 minutes)

About coastal observations | Map of coastal stations | Coastal observations for NT | Marine services | Other Formats
Station Details ID: 014703 Name: CENTRE ISLAND Lat: -15.74 Lon: 136.82 Height: 12.2 m
Data from the previous 72 hours. | See also: Recent months at Centre Island
Date/Time
CST
Temp
°C
Wind Pressure Rain since
9am
mm
Weather Cloud Vis
km
Sea
Height
m
Swell
Dir  Spd
kts
Gust
kts
hPa Trend Height
m
Period
s
Dir
20/12:00am 24.0 SSE 10 11 1014.8 - 0.0 - - - - - - -
 
Date/Time
CST
Temp
°C
Wind Pressure Rain since
9am
mm
Weather Cloud Vis
km
Sea
Height
m
Swell
Dir  Spd
kts
Gust
kts
hPa Trend Height
m
Period
s
Dir
19/11:30pm 24.5 SE 10 11 1015.0 - 0.0 - - - - - - -
19/11:00pm 24.3 E 8 11 1014.9 - 0.0 - - - - - - -
19/10:30pm 24.3 ENE 7 9 1015.0 - 0.0 - - - - - - -
19/10:00pm 24.5 ENE 9 11 1015.2 - 0.0 - - - - - - -
19/09:30pm 24.5 ENE 8 11 1015.1 - 0.0 - - - - - - -
19/09:00pm 24.7 ENE 11 13 1015.1 - 0.0 - - - - - - -
19/08:30pm 24.8 ENE 11 14 1014.9 - 0.0 - - - - - - -
19/08:00pm 24.9 E 13 15 1015.0 - 0.0 - - - - - - -
19/07:30pm 25.1 E 13 16 1014.7 - 0.0 - - - - - - -
19/07:00pm 25.4 E 13 16 1014.5 - 0.0 - - - - - - -
19/06:30pm 25.6 E 15 18 1014.1 - 0.0 - - - - - - -
19/06:00pm 26.1 E 15 18 1013.7 - 0.0 - - - - - - -
19/05:30pm 26.9 E 15 18 1013.4 - 0.0 - - - - - - -
19/05:00pm 27.4 E 18 22 1013.1 - 0.0 - - - - - - -
19/04:30pm 28.1 E 17 21 1012.9 - 0.0 - - - - - - -
19/04:00pm 29.0 E 19 23 1012.8 - 0.0 - - - - - - -
19/03:30pm 29.5 E 21 25 1012.9 - 0.0 - - - - - - -
19/03:00pm 29.9 ESE 18 22 1013.1 - 0.0 - - - - - - -
19/02:30pm 30.1 E 20 25 1013.3 - 0.0 - - - - - - -
19/02:00pm 30.4 E 21 25 1013.6 - 0.0 - - - - - - -
19/01:30pm 30.2 E 21 26 1014.1 - 0.0 - - - - - - -
19/01:00pm 29.7 ESE 24 28 1014.4 - 0.0 - - - - - - -
19/12:30pm 29.3 ESE 25 30 1015.0 - 0.0 - - - - - - -
19/12:00pm 29.3 ESE 22 27 1015.5 - 0.0 - - - - - - -
19/11:30am 29.0 ESE 21 27 1016.0 - 0.0 - - - - - - -
19/11:00am 28.4 ESE 20 24 1016.4 - 0.0 - - - - - - -
19/10:30am 28.0 ESE 22 25 1016.6 - 0.0 - - - - - - -
19/10:00am 27.8 ESE 21 25 1016.7 - 0.0 - - - - - - -
19/09:30am 27.2 ESE 26 31 1016.5 - 0.0 - - - - - - -
19/09:00am 26.7 ESE 21 27 1016.2 - 0.0 - - - - - - -
19/08:30am 26.1 ESE 23 27 1016.0 - 0.0 - - - - - - -
19/08:00am 25.8 SE 21 24 1016.0 - 0.0 - - - - - - -
19/07:30am 25.4 SE 21 25 1015.6 - 0.0 - - - - - - -
19/07:00am 25.4 SE 25 30 1015.1 - 0.0 - - - - - - -
19/06:30am 24.8 SE 23 28 1014.8 - 0.0 - - - - - - -
19/06:00am 23.8 SE 18 25 1014.5 - 0.0 - - - - - - -
19/05:53am 22.5 SSE 12 20 1014.5 - 0.0 - - - - - - -
19/05:30am 22.4 S 7 9 1014.3 - 0.0 - - - - - - -
19/05:00am 22.6 S 8 10 1014.1 - 0.0 - - - - - - -
19/04:30am 23.2 SSE 8 10 1013.8 - 0.0 - - - - - - -
19/04:00am 23.6 SSE 9 11 1013.8 - 0.0 - - - - - - -
19/03:30am 23.7 SE 9 11 1013.8 - 0.0 - - - - - - -
19/03:00am 23.1 E 3 5 1013.5 - 0.0 - - - - - - -
19/02:30am 23.3 E 3 4 1013.8 - 0.0 - - - - - - -
19/02:00am 23.1 E 4 5 1014.0 - 0.0 - - - - - - -
19/01:30am 23.0 E 3 4 1014.0 - 0.0 - - - - - - -
19/01:00am 23.0 E 3 4 1014.1 - 0.0 - - - - - - -
19/12:30am 23.4 E 5 6 1014.4 - 0.0 - - - - - - -
19/12:00am 23.9 NE 7 8 1014.7 - 0.0 - - - - - - -
 
Date/Time
CST
Temp
°C
Wind Pressure Rain since
9am
mm
Weather Cloud Vis
km
Sea
Height
m
Swell
Dir  Spd
kts
Gust
kts
hPa Trend Height
m
Period
s
Dir
18/11:30pm 23.8 NE 6 7 1014.6 - 0.0 - - - - - - -
18/11:00pm 23.4 NE 3 5 1014.5 - 0.0 - - - - - - -
18/10:30pm 23.3 NNE 4 5 1014.6 - 0.0 - - - - - - -
18/10:00pm 23.3 NNW 3 4 1014.4 - 0.0 - - - - - - -
18/09:30pm 23.6 N 3 3 1014.2 - 0.0 - - - - - - -
18/09:00pm 23.9 N 4 5 1014.1 - 0.0 - - - - - - -
18/08:30pm 24.3 N 4 6 1014.0 - 0.0 - - - - - - -
18/08:00pm 24.5 N 4 5 1013.8 - 0.0 - - - - - - -
18/07:30pm 24.9 N 5 7 1013.4 - 0.0 - - - - - - -
18/07:00pm 25.2 N 6 8 1013.2 - 0.0 - - - - - - -
18/06:30pm 25.3 N 7 8 1013.0 - 0.0 - - - - - - -
18/06:00pm 26.0 NNE 7 10 1012.8 - 0.0 - - - - - - -
18/05:30pm 27.0 NNE 9 11 1012.9 - 0.0 - - - - - - -
18/05:00pm 27.7 NNE 8 11 1012.8 - 0.0 - - - - - - -
18/04:30pm 28.1 NNE 9 12 1012.7 - 0.0 - - - - - - -
18/04:00pm 28.8 NNE 10 14 1012.6 - 0.0 - - - - - - -
18/03:30pm 29.3 NNE 10 13 1012.8 - 0.0 - - - - - - -
18/03:00pm 29.7 NNE 10 14 1013.0 - 0.0 - - - - - - -
18/02:30pm 30.4 NNE 10 13 1013.2 - 0.0 - - - - - - -
18/02:00pm 29.4 NE 8 11 1013.6 - 0.0 - - - - - - -
18/01:30pm 31.0 NNE 7 10 1013.7 - 0.0 - - - - - - -
18/01:00pm 30.8 NNE 6 8 1013.9 - 0.0 - - - - - - -
18/12:30pm 30.2 NNE 7 10 1014.2 - 0.0 - - - - - - -
18/12:00pm 28.5 NE 5 6 1014.7 - 0.0 - - - - - - -
18/11:30am 26.9 ENE 4 5 1015.1 - 0.0 - - - - - - -
18/11:00am 25.2 ESE 5 6 1015.6 - 0.0 - - - - - - -
18/10:30am 25.3 ESE 5 6 1015.8 - 0.0 - - - - - - -
18/10:00am 24.6 SE 4 5 1015.9 - 0.0 - - - - - - -
18/09:30am 23.3 WSW 1 4 1015.8 - 0.0 - - - - - - -
18/09:00am 22.4 WSW 3 4 1015.5 - 0.2 - - - - - - -
18/08:30am 22.4 SW 3 6 1015.3 - 0.2 - - - - - - -
18/08:00am 22.4 SSW 4 5 1015.0 - 0.2 - - - - - - -
18/07:30am 22.3 SSW 6 7 1014.6 - 0.2 - - - - - - -
18/07:00am 22.5 WSW 7 8 1014.1 - 0.2 - - - - - - -
18/06:30am 22.4 WSW 7 8 1013.8 - 0.2 - - - - - - -
18/06:00am 22.7 WSW 8 10 1013.3 - 0.2 Recent precip. - - - - - -
18/05:30am 22.6 WSW 4 6 1012.8 - 0.0 - - - - - - -
18/05:00am 22.5 W 3 5 1012.5 - 0.0 - - - - - - -
18/04:30am 22.5 NNW 4 5 1012.1 - 0.0 - - - - - - -
18/04:00am 22.2 N 3 5 1012.0 - 0.0 - - - - - - -
18/03:30am 22.2 ENE 1 4 1012.0 - 0.0 - - - - - - -
18/03:00am 22.1 CALM 0 0 1012.0 - 0.0 - - - - - - -
18/02:30am 22.8 ENE 3 5 1012.1 - 0.0 - - - - - - -
18/02:00am 23.1 ENE 5 6 1012.4 - 0.0 - - - - - - -
18/01:30am 23.3 ENE 5 7 1012.6 - 0.0 - - - - - - -
18/01:00am 23.4 NE 5 6 1012.8 - 0.0 - - - - - - -
18/12:30am 23.6 NE 6 8 1012.8 - 0.0 - - - - - - -
18/12:00am 23.8 NE 6 7 1013.0 - 0.0 - - - - - - -
 
Date/Time
CST
Temp
°C
Wind Pressure Rain since
9am
mm
Weather Cloud Vis
km
Sea
Height
m
Swell
Dir  Spd
kts
Gust
kts
hPa Trend Height
m
Period
s
Dir
17/11:30pm 23.7 NE 6 7 1013.0 - 0.0 - - - - - - -
17/11:00pm 23.6 NE 5 6 1013.1 - 0.0 - - - - - - -
17/10:30pm 23.6 NNE 5 6 1013.1 - 0.0 - - - - - - -
17/10:00pm 23.8 NNE 5 6 1013.1 - 0.0 - - - - - - -
17/09:30pm 24.1 NNE 7 8 1013.0 - 0.0 - - - - - - -
17/09:00pm 24.1 NNE 5 7 1013.0 - 0.0 - - - - - - -
17/08:30pm 24.2 N 5 6 1012.9 - 0.0 - - - - - - -
17/08:00pm 24.4 NNE 7 8 1012.7 - 0.0 - - - - - - -
17/07:30pm 24.7 NNE 7 9 1012.3 - 0.0 - - - - - - -
17/07:00pm 24.7 NNE 6 8 1012.1 - 0.0 - - - - - - -
17/06:30pm 25.1 NNE 8 11 1011.8 - 0.0 - - - - - - -
17/06:00pm 25.5 NNE 10 13 1011.6 - 0.0 - - - - - - -
17/05:30pm 26.1 NE 11 16 1011.5 - 0.0 - - - - - - -
17/05:00pm 26.5 NNE 12 15 1011.5 - 0.0 - - - - - - -
17/04:30pm 27.4 NNE 11 14 1011.3 - 0.0 - - - - - - -
17/04:00pm 27.3 NNE 13 18 1011.2 - 0.0 - - - - - - -
17/03:30pm 28.2 NNE 13 16 1011.3 - 0.0 - - - - - - -
17/03:00pm 28.4 NNE 12 16 1011.6 - 0.0 - - - - - - -
17/02:30pm 28.6 NNE 14 18 1011.7 - 0.0 - - - - - - -
17/02:00pm 28.6 NE 14 17 1011.9 - 0.0 - - - - - - -
17/01:30pm 28.4 NE 14 18 1012.3 - 0.0 - - - - - - -
17/01:00pm 28.6 NNE 11 15 1012.5 - 0.0 - - - - - - -
17/12:30pm 28.5 NE 6 8 1012.6 - 0.0 - - - - - - -
17/12:00pm 26.7 ESE 5 9 1012.8 - 0.0 - - - - - - -
17/11:30am 25.9 E 4 6 1013.2 - 0.0 - - - - - - -
17/11:00am 25.3 SE 4 6 1013.6 - 0.0 - - - - - - -
17/10:30am 24.0 SSE 4 6 1013.8 - 0.0 - - - - - - -
17/10:00am 23.8 S 5 7 1013.9 - 0.0 - - - - - - -
17/09:30am 23.5 SSW 6 8 1013.8 - 0.0 - - - - - - -
17/09:00am 23.1 S 6 8 1013.6 - 0.2 - - - - - - -
17/08:30am 22.9 SSW 6 7 1013.5 - 0.2 - - - - - - -
17/08:00am 23.0 S 6 8 1013.2 - 0.2 - - - - - - -
17/07:30am 22.9 SSE 6 9 1012.9 - 0.2 - - - - - - -
17/07:00am 23.0 S 7 8 1012.6 - 0.2 - - - - - - -
17/06:30am 23.1 SSE 5 6 1012.3 - 0.2 - - - - - - -
17/06:00am 23.0 ESE 4 4 1012.0 - 0.2 - - - - - - -
17/05:30am 22.8 E 3 4 1011.6 - 0.2 - - - - - - -
17/05:00am 23.0 E 4 4 1011.3 - 0.2 - - - - - - -
17/04:30am 23.1 ENE 3 4 1011.2 - 0.2 - - - - - - -
17/04:00am 23.3 NE 5 6 1011.0 - 0.2 - - - - - - -
17/03:30am 23.5 NE 6 7 1011.0 - 0.2 - - - - - - -
17/03:00am 23.4 NNE 5 7 1011.0 - 0.2 - - - - - - -
17/02:30am 23.4 NNE 5 7 1011.1 - 0.2 - - - - - - -
17/02:00am 23.4 NNE 5 7 1011.5 - 0.2 - - - - - - -
17/01:30am 23.2 N 5 6 1011.6 - 0.2 - - - - - - -
17/01:00am 23.2 N 5 6 1011.8 - 0.2 - - - - - - -
17/12:30am 23.6 N 5 7 1011.9 - 0.2 - - - - - - -

Other Formats:

Comma delimited format used in spreadsheet applications
http://www.bom.gov.au/fwo/IDD60701/IDD60701.94248.axf

JavaScript Object Notation format (JSON) in row-major order
http://www.bom.gov.au/fwo/IDD60701/IDD60701.94248.json